Onego Monsoon — 5BKT2 — position and weather

sailwx.info

Track history (hours):
 
Tides and Currents Weather Stations Pressure Air Temp Water Temp Dewpoint Dewpoint Depression Visibility Wind Speed Wind Dir Waves Ship Positions

Onego Monsoon

Last reported at 2017-Dec-09 04:21 UTC. Time now 2017-Dec-11 17:08 UTC.
Position S 05°29' E 011°53'.

Length 117 m; draft 5.5 m.

MMSI: 210724000.

Date/timePositionNaut miles runAvg speedWind from/ knotsBaromVisibWave heightAir tempDewpointWater temp
2017-Dec-09 04:21S 05°29' E 011°53'3 5.9
2017-Dec-09 03:52S 05°27' E 011°51'2 6.1
2017-Dec-09 03:30S 05°25' E 011°49'3 6.5
2017-Dec-09 02:58S 05°23' E 011°47'3 6.6
2017-Dec-09 02:29S 05°20' E 011°45'3 6.6
2017-Dec-09 02:00S 05°18' E 011°43'3 6.7
2017-Dec-09 01:30S 05°15' E 011°41'3 6.7
2017-Dec-09 01:00S 05°13' E 011°39'3 6.7
2017-Dec-09 00:30S 05°10' E 011°37'3 6.6
2017-Dec-08 23:59S 05°08' E 011°34'3 6.4
2017-Dec-08 23:30S 05°05' E 011°32'3 6.3
2017-Dec-08 23:00S 05°03' E 011°30'3 6.0
2017-Dec-08 22:30S 04°60' E 011°30'3 6.9
2017-Dec-08 22:00S 04°57' E 011°32'8 0.8
2017-Dec-08 11:51S 04°57' E 011°23'8 7.8
2017-Dec-08 10:49S 04°56' E 011°16'2 6.2
2017-Dec-08 10:26S 04°55' E 011°13'3 6.2
2017-Dec-08 09:57S 04°54' E 011°10'6 6.3
2017-Dec-08 09:02S 04°52' E 011°05'1 6.3
2017-Dec-08 08:56S 04°52' E 011°04'  
2017-Dec-03 15:04S 04°46' E 011°48'18 1.1
2017-Dec-02 22:20S 04°55' E 011°33'3 7.1
2017-Dec-02 21:58S 04°58' E 011°32'3 6.9
2017-Dec-02 21:30S 05°01' E 011°31'11 6.5
2017-Dec-02 19:48S 05°10' E 011°37'3 7.0
2017-Dec-02 19:20S 05°13' E 011°39'2 7.0
2017-Dec-02 19:00S 05°15' E 011°40'3 6.9
2017-Dec-02 18:30S 05°17' E 011°43'5 7.0
2017-Dec-02 17:50S 05°21' E 011°46'2 7.0
2017-Dec-02 17:29S 05°23' E 011°47'4 6.9
2017-Dec-02 16:58S 05°25' E 011°50'3 7.0
2017-Dec-02 16:30S 05°28' E 011°52'  
Track history (hours):
 
Tides and Currents Weather Stations Pressure Air Temp Water Temp Dewpoint Dewpoint Depression Visibility Wind Speed Wind Dir Waves Ship Positions

Onego Monsoon

Last reported at 2017-Dec-09 04:21 UTC. Time now 2017-Dec-11 17:08 UTC.
Position S 05°29' E 011°53'.

Length 117 m; draft 5.5 m.

MMSI: 210724000.

Date/timePositionNaut miles runAvg speedWind from/ knotsBaromVisibWave heightAir tempDewpointWater temp
2017-Dec-09 04:21S 05°29' E 011°53'3 5.9
2017-Dec-09 03:52S 05°27' E 011°51'2 6.1
2017-Dec-09 03:30S 05°25' E 011°49'3 6.5
2017-Dec-09 02:58S 05°23' E 011°47'3 6.6
2017-Dec-09 02:29S 05°20' E 011°45'3 6.6
2017-Dec-09 02:00S 05°18' E 011°43'3 6.7
2017-Dec-09 01:30S 05°15' E 011°41'3 6.7
2017-Dec-09 01:00S 05°13' E 011°39'3 6.7
2017-Dec-09 00:30S 05°10' E 011°37'3 6.6
2017-Dec-08 23:59S 05°08' E 011°34'3 6.4
2017-Dec-08 23:30S 05°05' E 011°32'3 6.3
2017-Dec-08 23:00S 05°03' E 011°30'3 6.0
2017-Dec-08 22:30S 04°60' E 011°30'3 6.9
2017-Dec-08 22:00S 04°57' E 011°32'8 0.8
2017-Dec-08 11:51S 04°57' E 011°23'8 7.8
2017-Dec-08 10:49S 04°56' E 011°16'2 6.2
2017-Dec-08 10:26S 04°55' E 011°13'3 6.2
2017-Dec-08 09:57S 04°54' E 011°10'6 6.3
2017-Dec-08 09:02S 04°52' E 011°05'1 6.3
2017-Dec-08 08:56S 04°52' E 011°04'  
2017-Dec-03 15:04S 04°46' E 011°48'18 1.1
2017-Dec-02 22:20S 04°55' E 011°33'3 7.1
2017-Dec-02 21:58S 04°58' E 011°32'3 6.9
2017-Dec-02 21:30S 05°01' E 011°31'11 6.5
2017-Dec-02 19:48S 05°10' E 011°37'3 7.0
2017-Dec-02 19:20S 05°13' E 011°39'2 7.0
2017-Dec-02 19:00S 05°15' E 011°40'3 6.9
2017-Dec-02 18:30S 05°17' E 011°43'5 7.0
2017-Dec-02 17:50S 05°21' E 011°46'2 7.0
2017-Dec-02 17:29S 05°23' E 011°47'4 6.9
2017-Dec-02 16:58S 05°25' E 011°50'3 7.0
2017-Dec-02 16:30S 05°28' E 011°52'  

Dump ship's entire track history